createdAt,value
2023-10-15T06:34:07.779Z,101636.56
2023-10-15T06:36:34.918Z,101642.94
2023-10-15T06:39:01.809Z,101641.50
2023-10-15T06:41:29.068Z,101648.84
2023-10-15T06:43:56.124Z,101641.41
2023-10-15T06:46:26.735Z,101659.38
2023-10-15T06:48:55.345Z,101650.53
2023-10-15T06:51:22.498Z,101648.81
2023-10-15T06:53:49.490Z,101648.09
2023-10-15T13:27:05.426Z,101945.75
2023-10-15T13:29:34.899Z,101945.78
2023-10-15T13:32:01.970Z,101960.84
2023-10-15T13:34:28.930Z,101968.50
2023-10-15T13:36:55.935Z,101979.66
2023-10-15T13:39:29.966Z,101970.75
2023-10-15T13:41:57.302Z,101972.41
2023-10-15T13:44:24.309Z,101985.94
2023-10-15T13:46:51.645Z,101976.63
2023-10-15T13:49:19.552Z,101981.63
2023-10-15T13:51:47.406Z,101958.31
2023-10-15T13:54:14.722Z,101970.41
2023-10-15T13:56:44.986Z,101969.59
2023-10-15T13:59:15.070Z,101967.69
2023-10-15T14:01:46.061Z,101970.09
2023-10-15T14:04:13.207Z,101979.69
2023-10-15T14:06:40.247Z,101990.31
2023-10-15T14:09:15.626Z,101987.56
2023-10-15T14:11:43.917Z,101997.19
2023-10-15T14:14:12.144Z,102003.72
2023-10-15T14:16:40.248Z,102010.69
2023-10-15T14:19:07.215Z,101995.56
2023-10-15T14:21:35.457Z,101982.72
2023-10-15T14:24:02.299Z,101982.75
2023-10-15T14:26:29.214Z,101982.53
2023-10-15T14:28:55.985Z,101982.53
2023-10-15T14:31:25.668Z,101973.13
2023-10-15T14:33:52.928Z,101969.09
2023-10-15T14:36:26.408Z,101972.34
2023-10-15T14:38:53.405Z,101969.72
2023-10-15T14:41:20.460Z,101968.19
2023-10-15T14:43:47.350Z,101971.72
2023-10-15T14:46:16.488Z,101975.75
2023-10-15T14:48:43.725Z,101972.75
2023-10-15T14:51:11.374Z,101982.81
2023-10-15T14:53:38.135Z,101981.63
2023-10-15T14:56:05.297Z,101989.03
2023-10-15T14:58:32.187Z,101993.88
2023-10-15T15:00:59.189Z,101985.84
2023-10-15T15:03:26.016Z,101986.66
2023-10-15T15:05:53.065Z,101991.53
2023-10-15T15:08:19.990Z,101987.03
2023-10-15T15:10:49.862Z,101986.56
2023-10-15T15:13:16.918Z,102005.03
2023-10-15T15:15:44.216Z,101997.63
2023-10-15T15:18:11.310Z,101998.78
2023-10-15T15:20:38.106Z,101999.34
2023-10-15T15:23:05.044Z,101996.41
2023-10-15T15:25:32.304Z,102002.72
2023-10-15T15:27:59.316Z,101998.44
2023-10-15T15:30:26.159Z,102004.59
2023-10-15T15:33:02.043Z,101997.44
2023-10-15T15:35:30.210Z,101997.75
2023-10-15T15:37:57.332Z,101996.09
2023-10-15T15:40:24.487Z,101982.47
2023-10-15T15:42:51.371Z,101984.94
2023-10-15T15:45:18.289Z,101993.53
2023-10-15T15:47:45.217Z,101991.25
2023-10-15T15:50:13.205Z,101977.00
2023-10-15T15:52:41.802Z,101991.88
2023-10-15T15:55:09.177Z,101992.22
2023-10-15T15:57:36.238Z,101994.44
2023-10-15T16:00:04.323Z,102001.16
2023-10-15T16:02:38.323Z,101988.03
2023-10-15T16:05:05.816Z,101996.66
2023-10-15T16:07:33.622Z,102001.69
2023-10-15T16:10:02.434Z,101999.75
2023-10-15T16:12:29.626Z,101988.16
2023-10-15T16:14:56.508Z,102000.13
2023-10-15T16:17:23.404Z,102004.56
2023-10-15T16:19:53.286Z,101993.84
2023-10-15T16:22:20.261Z,102010.25
2023-10-15T16:24:56.443Z,102005.13
2023-10-15T16:27:32.275Z,102015.94
2023-10-15T16:29:59.176Z,102015.88
2023-10-15T16:32:26.448Z,102022.22
2023-10-15T16:34:53.646Z,102022.94
2023-10-15T16:37:20.558Z,102031.97
2023-10-15T16:39:47.601Z,102024.78
2023-10-15T16:42:15.798Z,102038.72
2023-10-15T16:44:42.688Z,102041.53
2023-10-15T16:47:09.568Z,102041.56
2023-10-15T16:49:36.400Z,102036.91
2023-10-15T16:52:03.229Z,102050.09
2023-10-15T16:54:30.133Z,102047.75
2023-10-15T16:56:56.974Z,102044.31
2023-10-15T16:59:24.003Z,102049.84
2023-10-15T17:01:51.020Z,102039.63
2023-10-15T17:04:21.827Z,102056.81
2023-10-15T17:06:48.695Z,102055.47
2023-10-15T17:09:15.548Z,102059.66
2023-10-15T17:11:43.039Z,102059.84
2023-10-15T17:14:11.094Z,102062.69
2023-10-15T17:16:38.168Z,102061.84
2023-10-15T17:19:04.988Z,102068.47
2023-10-15T17:21:32.651Z,102071.59
2023-10-15T17:23:59.542Z,102074.28
2023-10-15T17:26:26.598Z,102068.13
2023-10-15T17:28:55.020Z,102077.59
2023-10-15T17:31:22.349Z,102077.91
2023-10-15T17:33:49.241Z,102072.59
2023-10-15T17:36:18.081Z,102076.84
2023-10-15T17:38:45.350Z,102077.75
2023-10-15T17:41:12.547Z,102077.84
2023-10-15T17:43:39.385Z,102068.34
2023-10-15T17:46:06.245Z,102079.44
2023-10-15T17:48:33.260Z,102079.59
2023-10-15T17:51:00.105Z,102086.66
2023-10-15T17:53:28.512Z,102087.53
2023-10-15T17:55:58.507Z,102081.97
2023-10-15T17:58:26.673Z,102095.25
2023-10-15T18:00:53.918Z,102098.81
2023-10-15T18:03:21.988Z,102097.75
2023-10-15T18:05:50.373Z,102089.78
2023-10-15T18:08:17.330Z,102102.75
2023-10-15T18:10:44.918Z,102088.66
2023-10-15T18:13:12.014Z,102102.38
2023-10-15T18:15:41.002Z,102102.38
2023-10-15T18:18:11.157Z,102107.44
2023-10-15T18:20:38.085Z,102109.69
2023-10-15T18:23:04.761Z,102116.47
2023-10-15T18:25:32.924Z,102110.66
2023-10-15T18:27:59.707Z,102105.97
2023-10-15T18:30:27.092Z,102109.19
2023-10-15T18:32:54.013Z,102108.59
2023-10-15T18:35:20.902Z,102113.06
2023-10-15T18:37:48.351Z,102117.94
2023-10-15T18:40:16.807Z,102120.38
2023-10-15T18:42:44.137Z,102109.66
2023-10-15T18:45:11.648Z,102118.31
2023-10-15T18:47:38.767Z,102121.47
2023-10-15T18:50:09.288Z,102125.03
2023-10-15T18:52:36.960Z,102122.72
2023-10-15T18:55:06.677Z,102119.78
2023-10-15T18:57:33.601Z,102115.81
2023-10-15T19:00:00.459Z,102120.69
2023-10-15T19:02:28.035Z,102116.22
2023-10-15T19:04:54.926Z,102125.84
2023-10-15T19:07:23.863Z,102125.66
2023-10-15T19:09:53.878Z,102114.56
2023-10-15T19:12:20.825Z,102121.59
2023-10-15T19:14:48.214Z,102124.75
2023-10-15T19:17:15.233Z,102123.13
2023-10-15T19:19:42.466Z,102128.28
2023-10-15T19:22:09.276Z,102123.66
2023-10-15T19:24:37.170Z,102128.59
2023-10-15T19:27:09.422Z,102132.03
2023-10-15T19:29:39.737Z,102137.47
2023-10-15T19:32:06.548Z,102130.19
2023-10-15T19:34:33.389Z,102131.09
2023-10-15T19:37:01.754Z,102136.81
2023-10-15T19:39:28.705Z,102134.75
2023-10-15T19:41:55.603Z,102142.53
2023-10-15T19:44:22.454Z,102145.91
2023-10-15T19:46:51.771Z,102137.53
2023-10-15T19:49:18.599Z,102142.66
2023-10-15T19:51:45.973Z,102141.28
2023-10-15T19:54:12.903Z,102134.53
2023-10-15T19:56:40.276Z,102136.81
2023-10-15T19:59:07.541Z,102128.84
2023-10-15T20:01:35.060Z,102138.38
2023-10-15T20:04:07.226Z,102138.66
2023-10-15T20:06:35.427Z,102137.66
2023-10-15T20:09:02.176Z,102133.91
2023-10-15T20:11:29.523Z,102134.69
2023-10-15T20:13:56.349Z,102129.34
2023-10-15T20:16:23.727Z,102129.75
2023-10-15T20:18:51.168Z,102127.25
2023-10-15T20:21:18.171Z,102135.16
2023-10-15T20:23:44.980Z,102136.34
2023-10-15T20:26:11.938Z,102136.81
2023-10-15T20:28:38.704Z,102133.56
2023-10-15T20:31:05.678Z,102128.97
2023-10-15T20:33:33.416Z,102135.75
2023-10-15T20:36:00.298Z,102124.84
2023-10-15T20:38:28.552Z,102136.72
2023-10-15T20:40:56.720Z,102136.81
2023-10-15T20:43:23.735Z,102132.34
2023-10-15T20:45:50.600Z,102132.34
2023-10-15T20:48:17.454Z,102139.72
2023-10-15T20:50:44.809Z,102138.75
2023-10-15T20:53:11.588Z,102131.72
2023-10-15T20:55:39.290Z,102133.00
2023-10-15T20:58:10.125Z,102138.84
2023-10-15T21:00:43.274Z,102130.75
2023-10-15T21:03:10.737Z,102133.09
2023-10-15T21:05:37.669Z,102131.91
2023-10-15T21:08:07.298Z,102128.50
2023-10-15T21:10:36.631Z,102126.13
2023-10-15T21:13:04.327Z,102131.28
2023-10-15T21:15:32.703Z,102128.56
2023-10-15T21:18:00.138Z,102123.22
2023-10-15T21:20:28.766Z,102121.47
2023-10-15T21:22:56.627Z,102115.88
2023-10-15T21:25:23.654Z,102117.78
2023-10-15T21:27:52.396Z,102115.81
2023-10-15T21:30:22.246Z,102115.41
2023-10-15T21:32:49.928Z,102113.72
2023-10-15T21:35:17.023Z,102115.72
2023-10-15T21:37:43.755Z,102125.69
2023-10-15T21:40:16.099Z,102115.47
2023-10-15T21:42:47.782Z,102118.13
2023-10-15T21:45:15.009Z,102121.75
2023-10-15T21:47:43.353Z,102121.44
2023-10-15T21:50:14.450Z,102117.69
2023-10-15T21:52:42.490Z,102122.25
2023-10-15T21:55:12.412Z,102120.50
2023-10-15T21:57:42.910Z,102122.84
2023-10-15T22:00:29.278Z,102116.00
2023-10-15T22:02:57.131Z,102103.97
2023-10-15T22:05:25.075Z,102114.81
2023-10-15T22:07:52.158Z,102120.31
2023-10-15T22:10:19.005Z,102108.47
2023-10-15T22:12:45.807Z,102105.34
2023-10-15T22:15:13.708Z,102109.22
2023-10-15T22:17:40.563Z,102111.84
2023-10-15T22:20:20.769Z,102110.38
2023-10-15T22:22:48.502Z,102112.31
2023-10-15T22:25:18.795Z,102105.47
2023-10-15T22:27:45.910Z,102098.41
2023-10-15T22:30:20.987Z,102102.50
2023-10-15T22:32:52.966Z,102101.69
2023-10-15T22:35:25.413Z,102085.88
2023-10-15T22:37:53.404Z,102099.31
2023-10-15T22:40:20.861Z,102099.81
2023-10-15T22:42:47.687Z,102093.00
2023-10-15T22:45:14.893Z,102094.47
2023-10-15T22:47:41.778Z,102083.63
2023-10-15T22:50:17.490Z,102080.72
2023-10-15T22:52:44.432Z,102099.38
2023-10-15T22:55:11.336Z,102086.75
2023-10-15T22:57:39.107Z,102086.78
2023-10-15T23:00:11.793Z,102077.88
2023-10-15T23:02:41.510Z,102085.97
2023-10-15T23:05:08.982Z,102082.84
2023-10-15T23:07:38.930Z,102084.59
2023-10-15T23:10:11.137Z,102088.50
2023-10-15T23:12:48.446Z,102079.88
2023-10-15T23:15:18.233Z,102076.31
2023-10-15T23:17:46.123Z,102071.16
2023-10-15T23:20:18.844Z,102078.13
2023-10-15T23:22:46.804Z,102073.50
2023-10-15T23:25:16.184Z,102067.13
2023-10-15T23:27:43.131Z,102075.38
2023-10-15T23:30:11.146Z,102079.22
2023-10-15T23:32:40.830Z,102068.91
2023-10-15T23:35:08.710Z,102075.59
2023-10-15T23:37:40.260Z,102083.06
2023-10-15T23:40:14.413Z,102070.06
2023-10-15T23:42:42.343Z,102073.75
2023-10-15T23:45:13.208Z,102071.00
2023-10-15T23:47:42.824Z,102077.91
2023-10-15T23:50:16.791Z,102072.41
2023-10-15T23:52:46.204Z,102070.94
2023-10-15T23:55:19.258Z,102071.91
2023-10-15T23:57:52.528Z,102062.75
